Time;durP1;ratioP1;P1;durP2;ratioP2;P2;SDS_P1;SDS_P2;PMS_P1;PMS_P2;Temp;Humidity;BMP_temperature;BMP_pressure;BME280_temperature;BME280_humidity;BME280_pressure;Samples;Min_cycle;Max_cycle;Signal;HPM_P1;HPM_P2
2021/12/28 00:01:22;;;;;;;42.70;7.40;;;10.20;87.70;;;;;;5036036;28;20043;-79
2021/12/28 00:03:49;;;;;;;48.13;7.47;;;10.20;87.70;;;;;;5036185;28;20548;-80
2021/12/28 00:06:17;;;;;;;41.53;7.30;;;10.20;87.70;;;;;;5035081;28;20520;-79
2021/12/28 00:08:46;;;;;;;46.50;7.45;;;10.20;87.70;;;;;;5035419;28;20052;-80
2021/12/28 00:11:13;;;;;;;47.58;7.57;;;10.30;87.70;;;;;;5035962;28;20502;-82
2021/12/28 00:13:41;;;;;;;54.90;8.40;;;10.20;87.70;;;;;;5036016;28;20045;-80
2021/12/28 00:16:29;;;;;;;43.13;7.60;;;10.20;87.70;;;;;;5035997;28;20045;-80
2021/12/28 00:18:57;;;;;;;36.30;7.43;;;10.30;87.70;;;;;;5034605;28;20052;-81
2021/12/28 00:21:24;;;;;;;47.60;7.30;;;10.30;87.70;;;;;;5035608;28;20053;-80
2021/12/28 00:23:52;;;;;;;39.53;6.40;;;10.20;87.70;;;;;;5035035;28;20047;-80
2021/12/28 00:26:22;;;;;;;44.80;6.72;;;10.20;87.70;;;;;;5035667;28;20045;-80
2021/12/28 00:28:50;;;;;;;36.95;6.22;;;10.30;87.70;;;;;;5035606;28;20043;-80
2021/12/28 00:31:18;;;;;;;33.65;6.07;;;10.30;87.70;;;;;;5035584;28;20041;-80
2021/12/28 00:33:46;;;;;;;36.78;6.28;;;10.30;87.70;;;;;;5035724;28;20049;-80
2021/12/28 00:36:14;;;;;;;39.50;6.70;;;10.30;87.70;;;;;;5034448;28;20045;-79
2021/12/28 00:38:41;;;;;;;40.03;6.45;;;10.30;87.60;;;;;;5036006;28;20060;-79
2021/12/28 00:41:09;;;;;;;35.97;6.10;;;10.30;87.60;;;;;;5035245;28;20048;-80
2021/12/28 00:43:37;;;;;;;30.85;5.88;;;10.20;87.60;;;;;;5035410;28;20513;-80
2021/12/28 00:46:05;;;;;;;35.63;5.70;;;10.30;87.70;;;;;;5035459;28;20052;-80
2021/12/28 00:48:33;;;;;;;32.72;5.35;;;10.30;87.60;;;;;;5035415;28;20060;-80
2021/12/28 00:51:00;;;;;;;25.27;5.47;;;10.30;87.60;;;;;;5034226;28;20056;-79
2021/12/28 00:53:27;;;;;;;29.90;5.43;;;10.30;87.60;;;;;;5035001;28;20061;-80
2021/12/28 00:55:55;;;;;;;28.85;4.85;;;10.30;87.60;;;;;;5035168;28;20502;-80
2021/12/28 00:58:22;;;;;;;24.88;4.68;;;10.30;87.60;;;;;;5035227;28;20045;-80
2021/12/28 01:00:50;;;;;;;30.35;4.55;;;10.30;87.60;;;;;;5035148;28;20064;-79
2021/12/28 01:03:18;;;;;;;32.08;5.68;;;10.30;87.60;;;;;;5034608;28;20508;-79
2021/12/28 01:05:45;;;;;;;22.98;4.32;;;10.30;87.60;;;;;;5033770;28;20414;-79
2021/12/28 01:08:13;;;;;;;26.48;4.15;;;10.30;87.60;;;;;;5034902;28;20038;-79
2021/12/28 01:10:49;;;;;;;23.25;4.47;;;10.30;87.60;;;;;;5034827;28;20399;-82
2021/12/28 01:13:17;;;;;;;31.77;5.55;;;10.30;87.60;;;;;;5034770;28;20045;-79
2021/12/28 01:15:45;;;;;;;25.48;4.53;;;10.30;87.60;;;;;;5035074;28;20041;-79
2021/12/28 01:18:13;;;;;;;20.95;4.13;;;10.30;87.60;;;;;;5033885;28;20116;-80
2021/12/28 01:20:41;;;;;;;16.33;3.45;;;10.30;87.50;;;;;;5034592;28;20050;-80
2021/12/28 01:23:08;;;;;;;19.92;3.92;;;10.30;87.60;;;;;;5034685;28;20063;-79
2021/12/28 01:25:35;;;;;;;22.08;3.45;;;10.40;87.50;;;;;;5034610;28;20049;-80
2021/12/28 01:28:03;;;;;;;16.63;3.53;;;10.30;87.50;;;;;;5034684;28;20037;-80
2021/12/28 01:30:31;;;;;;;16.75;3.33;;;10.40;87.50;;;;;;5034606;28;20057;-79
2021/12/28 01:32:59;;;;;;;23.83;3.55;;;10.30;87.50;;;;;;5033456;28;20045;-79
2021/12/28 01:35:29;;;;;;;21.08;3.30;;;10.30;87.50;;;;;;5034370;28;20060;-79
2021/12/28 01:37:58;;;;;;;21.45;2.92;;;10.30;87.50;;;;;;5034224;28;20041;-80
2021/12/28 01:40:29;;;;;;;14.98;2.97;;;10.30;87.50;;;;;;5034217;28;20041;-79
2021/12/28 01:43:19;;;;;;;15.90;2.78;;;10.30;87.50;;;;;;5034372;28;20042;-79
2021/12/28 01:45:55;;;;;;;10.30;2.45;;;10.30;87.50;;;;;;5020003;28;20041;-81
2021/12/28 01:48:22;;;;;;;10.32;2.13;;;10.30;87.40;;;;;;5033957;28;20498;-79
2021/12/28 01:50:52;;;;;;;10.82;2.13;;;10.30;87.40;;;;;;5033287;28;20068;-79
2021/12/28 01:53:19;;;;;;;9.68;2.20;;;10.30;87.40;;;;;;5034069;28;20041;-79
2021/12/28 01:55:51;;;;;;;12.10;2.25;;;10.30;87.40;;;;;;5034085;28;20045;-79
2021/12/28 01:58:19;;;;;;;11.70;2.00;;;10.30;87.40;;;;;;5033926;28;20041;-79
2021/12/28 02:00:49;;;;;;;10.80;2.35;;;10.30;87.40;;;;;;5033862;28;20051;-82
2021/12/28 02:03:19;;;;;;;10.60;2.05;;;10.30;87.40;;;;;;5032996;28;20579;-82
2021/12/28 02:05:48;;;;;;;15.55;2.20;;;10.30;87.40;;;;;;5032494;28;20054;-82
2021/12/28 02:08:16;;;;;;;11.85;1.88;;;10.30;87.40;;;;;;5033857;28;20046;-83
2021/12/28 02:10:45;;;;;;;13.65;2.30;;;10.30;87.40;;;;;;5036003;28;20060;-83
2021/12/28 02:13:12;;;;;;;8.82;1.85;;;10.30;87.40;;;;;;5033842;28;20045;-82
2021/12/28 02:15:40;;;;;;;10.95;1.90;;;10.30;87.40;;;;;;5033748;28;20524;-82
2021/12/28 02:18:09;;;;;;;11.43;1.98;;;10.30;87.40;;;;;;5032354;28;20045;-83
2021/12/28 02:20:37;;;;;;;6.65;1.52;;;10.30;87.40;;;;;;5033463;28;20394;-83
2021/12/28 02:23:05;;;;;;;8.07;1.40;;;10.30;87.40;;;;;;5033617;28;20049;-83
2021/12/28 02:25:32;;;;;;;11.30;1.88;;;10.30;87.40;;;;;;5033562;28;20417;-83
2021/12/28 02:27:59;;;;;;;9.50;1.52;;;10.30;87.40;;;;;;5033589;28;20580;-83
2021/12/28 02:30:27;;;;;;;7.20;1.30;;;10.30;87.40;;;;;;5033549;28;20053;-82
2021/12/28 02:32:54;;;;;;;8.40;1.50;;;10.30;87.30;;;;;;5032322;28;20405;-82
2021/12/28 02:35:24;;;;;;;9.23;1.63;;;10.30;87.30;;;;;;5033416;28;20490;-82
2021/12/28 02:37:52;;;;;;;5.65;1.38;;;10.30;87.30;;;;;;5033281;28;20045;-83
2021/12/28 02:40:25;;;;;;;8.00;1.55;;;10.30;87.30;;;;;;5033239;28;20091;-83
2021/12/28 02:42:54;;;;;;;6.13;1.60;;;10.30;87.40;;;;;;5033436;28;20045;-82
2021/12/28 02:45:24;;;;;;;5.15;1.30;;;10.30;87.30;;;;;;5032993;28;20046;-83
2021/12/28 02:47:52;;;;;;;5.20;1.50;;;10.30;87.30;;;;;;5032444;28;20142;-82
2021/12/28 02:50:25;;;;;;;8.52;1.30;;;10.30;87.40;;;;;;5033149;28;20528;-82
2021/12/28 02:52:53;;;;;;;6.18;1.38;;;10.20;87.30;;;;;;5033099;28;20049;-82
2021/12/28 02:55:24;;;;;;;7.55;1.55;;;10.30;87.40;;;;;;5033173;28;20049;-82
2021/12/28 02:57:56;;;;;;;5.15;1.98;;;10.30;87.40;;;;;;5033164;28;20045;-82
2021/12/28 03:00:34;;;;;;;9.60;1.58;;;10.30;87.40;;;;;;5032721;28;20048;-82
2021/12/28 03:03:19;;;;;;;4.38;1.40;;;10.30;87.40;;;;;;5028086;28;20052;-82
2021/12/28 03:05:49;;;;;;;5.00;1.40;;;10.20;87.40;;;;;;5030061;28;20548;-82
2021/12/28 03:08:19;;;;;;;7.22;1.65;;;10.30;87.30;;;;;;5032979;28;20060;-82
2021/12/28 03:10:46;;;;;;;5.00;1.33;;;10.20;87.30;;;;;;5032877;28;20045;-82
2021/12/28 03:13:19;;;;;;;5.43;1.67;;;10.20;87.40;;;;;;5033068;28;20042;-83
2021/12/28 03:15:46;;;;;;;8.88;1.77;;;10.20;87.40;;;;;;5032406;28;20049;-82
2021/12/28 03:18:13;;;;;;;5.28;1.50;;;10.20;87.40;;;;;;5035748;28;20052;-82
2021/12/28 03:20:40;;;;;;;5.03;1.55;;;10.20;87.40;;;;;;5036702;28;20049;-82
2021/12/28 03:23:08;;;;;;;4.07;1.65;;;10.20;87.40;;;;;;5036934;28;20042;-83
2021/12/28 03:25:36;;;;;;;6.05;1.50;;;10.20;87.40;;;;;;5036970;28;20045;-82
2021/12/28 03:28:03;;;;;;;8.23;2.35;;;10.20;87.50;;;;;;5036898;28;20042;-82
2021/12/28 03:30:30;;;;;;;7.30;1.77;;;10.20;87.50;;;;;;5036545;28;20049;-83
2021/12/28 03:32:58;;;;;;;5.55;1.88;;;10.20;87.50;;;;;;5036003;28;20052;-82
2021/12/28 03:35:25;;;;;;;6.95;2.22;;;10.20;87.50;;;;;;5036682;28;20060;-82
2021/12/28 03:37:53;;;;;;;6.95;1.75;;;10.20;87.50;;;;;;5036763;28;20046;-82
2021/12/28 03:40:20;;;;;;;5.50;1.90;;;10.20;87.50;;;;;;5036490;28;20405;-82
2021/12/28 03:42:46;;;;;;;6.57;2.00;;;10.30;87.60;;;;;;5036699;28;20046;-83
2021/12/28 03:45:13;;;;;;;4.38;1.50;;;10.20;87.60;;;;;;5035502;28;20418;-82
2021/12/28 03:47:41;;;;;;;7.85;1.90;;;10.20;87.60;;;;;;5036293;28;20045;-82
2021/12/28 03:50:10;;;;;;;6.18;2.03;;;10.20;87.60;;;;;;5036300;28;20539;-83
2021/12/28 03:52:39;;;;;;;6.93;2.25;;;10.20;87.60;;;;;;5036386;28;20046;-83
2021/12/28 03:55:09;;;;;;;9.55;2.22;;;10.30;87.60;;;;;;5036393;28;20049;-82
2021/12/28 03:57:36;;;;;;;8.82;2.30;;;10.20;87.60;;;;;;5020883;28;20049;-83
2021/12/28 04:00:05;;;;;;;10.40;2.75;;;10.20;87.60;;;;;;5030959;28;20533;-83
2021/12/28 04:02:32;;;;;;;10.57;2.50;;;10.20;87.60;;;;;;5037629;28;20037;-82
2021/12/28 04:04:59;;;;;;;7.20;2.60;;;10.30;87.60;;;;;;5035992;28;20525;-83
2021/12/28 04:07:26;;;;;;;8.48;2.20;;;10.30;87.70;;;;;;5036095;28;20054;-82
2021/12/28 04:12:22;;;;;;;6.40;2.15;;;10.30;87.60;;;;;;5035812;28;20056;-82
2021/12/28 04:14:49;;;;;;;5.68;2.08;;;10.30;87.70;;;;;;5033455;28;20053;-83
2021/12/28 04:17:16;;;;;;;8.73;2.40;;;10.30;87.70;;;;;;5035894;28;20049;-83
2021/12/28 04:19:43;;;;;;;6.40;2.17;;;10.30;87.70;;;;;;5035715;28;20429;-82
2021/12/28 04:22:11;;;;;;;10.30;2.40;;;10.30;87.70;;;;;;5035768;28;20049;-83
2021/12/28 04:24:38;;;;;;;5.57;2.50;;;10.30;87.70;;;;;;5035891;28;20037;-82
2021/12/28 04:27:22;;;;;;;6.55;2.28;;;10.30;87.70;;;;;;5034855;28;20580;-83
2021/12/28 04:29:49;;;;;;;10.05;2.30;;;10.30;87.70;;;;;;5034834;28;20524;-82
2021/12/28 04:32:16;;;;;;;7.50;2.50;;;10.30;87.70;;;;;;5035725;28;20124;-82
2021/12/28 04:34:48;;;;;;;8.85;2.40;;;10.30;87.70;;;;;;5035376;28;20501;-83
2021/12/28 04:37:15;;;;;;;8.90;2.38;;;10.30;87.70;;;;;;5035531;28;20048;-83
2021/12/28 04:39:42;;;;;;;8.68;2.35;;;10.30;87.70;;;;;;5035447;28;20049;-82
2021/12/28 04:42:09;;;;;;;5.85;1.85;;;10.30;87.70;;;;;;5034417;28;20418;-82
2021/12/28 04:44:36;;;;;;;7.15;2.13;;;10.30;87.70;;;;;;5035550;28;20050;-83
2021/12/28 04:47:03;;;;;;;6.28;1.90;;;10.30;87.70;;;;;;5035458;28;20053;-82
2021/12/28 04:49:30;;;;;;;5.22;1.88;;;10.30;87.70;;;;;;5035407;28;20045;-82
2021/12/28 04:51:58;;;;;;;12.13;2.13;;;10.30;87.70;;;;;;5035297;28;20059;-82
2021/12/28 04:54:25;;;;;;;8.68;2.20;;;10.30;87.70;;;;;;5035373;28;20056;-82
2021/12/28 04:56:52;;;;;;;5.50;1.80;;;10.30;87.70;;;;;;5034126;28;20046;-82
2021/12/28 04:59:20;;;;;;;7.65;1.90;;;10.30;87.70;;;;;;5035051;28;20049;-83
2021/12/28 05:01:47;;;;;;;6.75;1.90;;;10.30;87.70;;;;;;5035011;28;20049;-82
2021/12/28 05:04:14;;;;;;;5.03;1.88;;;10.30;87.80;;;;;;5034885;28;20056;-82
2021/12/28 05:06:42;;;;;;;4.80;1.73;;;10.30;87.80;;;;;;5035131;28;20521;-82
2021/12/28 05:09:11;;;;;;;5.72;1.85;;;10.30;87.80;;;;;;5033061;28;20049;-83
2021/12/28 05:11:39;;;;;;;4.82;1.75;;;10.30;87.80;;;;;;5034895;28;20045;-83
2021/12/28 05:14:07;;;;;;;6.25;1.58;;;10.30;87.80;;;;;;5034777;28;20409;-83
2021/12/28 05:16:35;;;;;;;6.03;2.00;;;10.30;87.80;;;;;;5034834;28;20056;-82
2021/12/28 05:19:05;;;;;;;7.13;1.98;;;10.30;87.80;;;;;;5034780;28;20518;-83
2021/12/28 05:21:33;;;;;;;5.30;2.08;;;10.40;87.90;;;;;;5034710;28;20050;-83
2021/12/28 05:24:00;;;;;;;7.18;2.20;;;10.30;87.90;;;;;;5033901;28;20067;-83
2021/12/28 05:26:27;;;;;;;9.70;2.10;;;10.30;87.90;;;;;;5034334;28;20049;-82
2021/12/28 05:28:54;;;;;;;7.45;2.13;;;10.30;87.90;;;;;;5035766;28;20046;-82
2021/12/28 05:31:25;;;;;;;5.43;1.90;;;10.30;87.80;;;;;;5034506;28;20045;-83
2021/12/28 05:33:53;;;;;;;4.72;1.95;;;10.40;87.90;;;;;;5034573;28;20049;-82
2021/12/28 05:36:22;;;;;;;7.13;2.10;;;10.30;87.90;;;;;;5034647;28;20057;-83
2021/12/28 05:38:50;;;;;;;4.18;1.80;;;10.40;87.90;;;;;;5031279;28;20533;-82
2021/12/28 05:41:17;;;;;;;10.38;2.08;;;10.40;87.90;;;;;;5033636;28;20052;-83
2021/12/28 05:43:44;;;;;;;5.88;2.20;;;10.40;87.90;;;;;;5034404;28;20407;-83
2021/12/28 05:46:12;;;;;;;5.60;2.13;;;10.40;87.90;;;;;;5034244;28;20045;-82
2021/12/28 05:48:39;;;;;;;5.43;2.10;;;10.40;87.90;;;;;;5034223;28;20476;-82
2021/12/28 05:51:06;;;;;;;7.65;2.03;;;10.40;88.00;;;;;;5033413;28;20050;-82
2021/12/28 05:53:33;;;;;;;6.53;2.20;;;10.40;88.00;;;;;;5034252;28;20041;-82
2021/12/28 05:56:01;;;;;;;8.23;2.22;;;10.40;88.00;;;;;;5033672;28;20045;-82
2021/12/28 05:58:28;;;;;;;4.85;2.05;;;10.40;88.00;;;;;;5034093;28;20052;-82
2021/12/28 06:00:55;;;;;;;4.80;2.22;;;10.40;88.00;;;;;;5034066;28;20046;-82
2021/12/28 06:03:22;;;;;;;4.63;2.10;;;10.40;88.00;;;;;;5034009;28;20099;-83
2021/12/28 06:05:49;;;;;;;5.55;1.95;;;10.40;88.00;;;;;;5032966;28;20521;-83
2021/12/28 06:08:16;;;;;;;6.07;2.30;;;10.40;88.00;;;;;;5033924;28;20041;-82
2021/12/28 06:10:59;;;;;;;7.20;1.98;;;10.40;88.00;;;;;;5033820;28;20497;-82
2021/12/28 06:13:26;;;;;;;6.50;2.30;;;10.40;88.00;;;;;;5033822;28;20041;-83
2021/12/28 06:15:54;;;;;;;9.10;2.35;;;10.40;88.00;;;;;;5033660;28;20433;-83
2021/12/28 06:18:21;;;;;;;6.80;2.13;;;10.40;88.00;;;;;;5033804;28;20084;-82
2021/12/28 06:20:48;;;;;;;6.60;2.15;;;10.40;88.00;;;;;;5032789;28;20049;-82
2021/12/28 06:23:17;;;;;;;4.47;1.95;;;10.40;88.00;;;;;;5033145;28;20409;-82
2021/12/28 06:25:44;;;;;;;5.43;2.00;;;10.40;88.00;;;;;;5033575;28;20056;-82
2021/12/28 06:28:11;;;;;;;7.00;2.03;;;10.50;88.10;;;;;;5033373;28;20048;-83
2021/12/28 06:30:38;;;;;;;7.68;1.92;;;10.50;88.10;;;;;;5033525;28;20045;-83
2021/12/28 06:33:05;;;;;;;7.30;1.83;;;10.50;88.10;;;;;;5032934;28;20053;-82
2021/12/28 06:35:32;;;;;;;7.97;2.03;;;10.50;88.10;;;;;;5033679;28;20049;-83
2021/12/28 06:38:00;;;;;;;4.90;1.83;;;10.50;88.10;;;;;;5032922;28;20045;-82
2021/12/28 06:40:27;;;;;;;5.93;2.45;;;10.50;88.10;;;;;;5033059;28;20055;-82
2021/12/28 06:42:54;;;;;;;6.28;2.10;;;10.50;88.10;;;;;;5033399;28;20045;-82
2021/12/28 06:45:22;;;;;;;7.15;2.03;;;10.50;88.10;;;;;;5032482;28;20071;-82
2021/12/28 06:47:49;;;;;;;4.78;1.90;;;10.50;88.10;;;;;;5034188;28;20064;-82
2021/12/28 06:50:16;;;;;;;5.07;1.95;;;10.50;88.10;;;;;;5032955;28;20042;-82
2021/12/28 06:52:43;;;;;;;3.85;1.80;;;10.50;88.10;;;;;;5032781;28;20046;-82
2021/12/28 06:55:11;;;;;;;5.70;1.77;;;10.50;88.10;;;;;;5033041;28;20518;-82
2021/12/28 06:57:38;;;;;;;6.28;1.77;;;10.60;88.10;;;;;;5033229;28;20049;-83
2021/12/28 07:00:09;;;;;;;4.90;1.83;;;10.60;88.10;;;;;;5031202;28;20067;-82
2021/12/28 07:02:36;;;;;;;7.43;1.60;;;10.60;88.10;;;;;;5031766;28;20502;-83
2021/12/28 07:05:04;;;;;;;6.25;1.55;;;10.60;88.10;;;;;;5032805;28;20060;-82
2021/12/28 07:07:31;;;;;;;5.45;1.58;;;10.60;88.10;;;;;;5032692;28;20425;-82
2021/12/28 07:09:58;;;;;;;8.07;1.48;;;10.60;88.10;;;;;;5032938;28;20055;-82
2021/12/28 07:12:26;;;;;;;6.22;1.35;;;10.60;88.10;;;;;;5033139;28;20058;-82
2021/12/28 07:14:53;;;;;;;6.15;1.55;;;10.60;88.10;;;;;;5032200;28;20413;-82
2021/12/28 07:17:20;;;;;;;10.32;1.50;;;10.50;88.00;;;;;;5032916;28;20042;-82
2021/12/28 07:19:47;;;;;;;6.72;1.20;;;10.60;88.00;;;;;;5032975;28;20056;-82
2021/12/28 07:22:14;;;;;;;10.40;2.03;;;10.50;87.90;;;;;;5032514;28;20046;-83
2021/12/28 07:24:41;;;;;;;10.93;1.50;;;10.60;87.90;;;;;;5032911;28;20049;-82
2021/12/28 07:27:08;;;;;;;11.32;1.90;;;10.50;87.90;;;;;;5032078;28;20080;-82
2021/12/28 07:29:35;;;;;;;13.23;1.63;;;10.50;87.90;;;;;;5032566;28;20049;-82
2021/12/28 07:32:08;;;;;;;8.18;1.48;;;10.50;87.90;;;;;;5032811;28;20052;-83
2021/12/28 07:34:35;;;;;;;8.98;1.33;;;10.50;87.80;;;;;;5032787;28;20533;-82
2021/12/28 07:37:02;;;;;;;9.85;1.77;;;10.50;87.90;;;;;;5034419;28;20399;-83
2021/12/28 07:39:29;;;;;;;9.68;1.80;;;10.50;87.80;;;;;;5032726;28;20064;-82
2021/12/28 07:41:56;;;;;;;10.43;1.80;;;10.50;87.80;;;;;;5031903;28;20173;-82
2021/12/28 07:44:24;;;;;;;9.15;1.33;;;10.50;87.80;;;;;;5032678;28;20052;-83
2021/12/28 07:46:51;;;;;;;10.85;2.05;;;10.50;87.80;;;;;;5032729;28;20057;-83
2021/12/28 07:49:19;;;;;;;12.13;1.85;;;10.50;87.80;;;;;;5032406;28;20037;-83
2021/12/28 07:51:47;;;;;;;9.45;1.65;;;10.50;87.80;;;;;;5032310;28;20224;-83
2021/12/28 07:54:14;;;;;;;12.13;1.85;;;10.50;87.80;;;;;;5030683;28;20046;-82
2021/12/28 07:56:41;;;;;;;8.68;1.40;;;10.50;87.80;;;;;;5032306;28;20050;-82
2021/12/28 07:59:08;;;;;;;6.90;1.50;;;10.50;87.80;;;;;;5031460;28;20048;-82
2021/12/28 08:01:36;;;;;;;9.07;1.65;;;10.50;87.80;;;;;;5032460;28;20049;-82
2021/12/28 08:04:04;;;;;;;7.95;1.88;;;10.50;87.80;;;;;;5035251;28;20461;-83
2021/12/28 08:06:31;;;;;;;9.32;1.60;;;10.50;87.80;;;;;;5035915;28;20049;-82
2021/12/28 08:08:59;;;;;;;8.40;1.80;;;10.50;87.80;;;;;;5035333;28;20046;-83
2021/12/28 08:11:28;;;;;;;8.68;1.80;;;10.50;87.80;;;;;;5036019;28;20049;-83
2021/12/28 08:13:55;;;;;;;11.13;1.52;;;10.50;87.80;;;;;;5035973;28;20037;-83
2021/12/28 08:16:22;;;;;;;10.43;1.83;;;10.50;87.80;;;;;;5035193;28;20513;-83
2021/12/28 08:18:50;;;;;;;12.32;1.65;;;10.50;87.80;;;;;;5032144;28;20053;-83
2021/12/28 08:21:37;;;;;;;4.53;1.13;;;10.50;87.80;;;;;;5034984;28;20052;-84
2021/12/28 08:24:05;;;;;;;6.70;1.33;;;10.50;87.80;;;;;;5030716;28;20052;-84
2021/12/28 08:26:32;;;;;;;9.45;1.30;;;10.50;87.80;;;;;;5034439;28;20060;-84
2021/12/28 08:28:59;;;;;;;7.28;1.30;;;10.50;87.90;;;;;;5034917;28;20041;-84
2021/12/28 08:31:26;;;;;;;6.95;1.02;;;10.60;87.90;;;;;;5035251;28;20056;-84
2021/12/28 08:33:53;;;;;;;7.85;1.30;;;10.60;87.90;;;;;;5035121;28;20068;-84
2021/12/28 08:36:21;;;;;;;6.20;1.33;;;10.50;87.90;;;;;;5035024;28;20045;-84
2021/12/28 08:38:48;;;;;;;6.65;1.23;;;10.50;87.90;;;;;;5032311;28;20061;-84
2021/12/28 08:41:17;;;;;;;6.03;0.85;;;10.50;87.90;;;;;;5035158;28;20060;-83
2021/12/28 08:43:46;;;;;;;4.75;0.95;;;10.60;88.00;;;;;;5034947;28;20076;-84
2021/12/28 08:46:14;;;;;;;11.82;1.85;;;10.60;88.00;;;;;;5035095;28;20045;-84
2021/12/28 08:48:42;;;;;;;13.45;1.65;;;10.60;88.00;;;;;;5036270;28;20037;-84
2021/12/28 08:51:09;;;;;;;18.73;2.25;;;10.60;88.00;;;;;;5033960;28;20049;-83
2021/12/28 08:53:36;;;;;;;25.25;2.70;;;10.60;88.00;;;;;;5034698;28;20052;-84
2021/12/28 08:56:03;;;;;;;25.85;3.20;;;10.60;88.00;;;;;;5034972;28;20486;-84
2021/12/28 08:58:31;;;;;;;29.02;4.13;;;10.60;88.00;;;;;;5034438;28;20046;-84
2021/12/28 09:00:58;;;;;;;29.85;4.18;;;10.60;87.90;;;;;;5034686;28;20055;-84
2021/12/28 09:03:25;;;;;;;26.02;4.05;;;10.60;87.80;;;;;;5034587;28;20052;-84
2021/12/28 09:05:52;;;;;;;29.17;4.43;;;10.50;87.70;;;;;;5033658;28;20142;-84
2021/12/28 09:08:20;;;;;;;32.63;4.47;;;10.50;87.60;;;;;;5034178;28;20045;-84
2021/12/28 09:10:48;;;;;;;38.70;6.30;;;10.50;87.50;;;;;;5034224;28;20045;-84
2021/12/28 09:13:17;;;;;;;38.55;5.55;;;10.50;87.40;;;;;;5033947;28;20049;-84
2021/12/28 09:15:46;;;;;;;33.17;5.47;;;10.50;87.30;;;;;;5034549;28;20572;-84
2021/12/28 09:18:13;;;;;;;33.53;5.43;;;10.50;87.10;;;;;;5033677;28;20065;-84
2021/12/28 09:20:41;;;;;;;43.10;6.13;;;10.50;87.00;;;;;;5034500;28;20053;-84
2021/12/28 09:23:09;;;;;;;47.78;6.85;;;10.50;86.80;;;;;;5034167;28;20128;-84
2021/12/28 09:25:38;;;;;;;56.92;6.55;;;10.50;86.70;;;;;;5034274;28;20048;-85
2021/12/28 09:28:07;;;;;;;59.08;7.93;;;10.50;86.50;;;;;;5033963;28;20049;-84
2021/12/28 09:30:35;;;;;;;52.42;7.47;;;10.50;86.30;;;;;;5034138;28;20049;-84
2021/12/28 09:33:03;;;;;;;53.70;7.80;;;10.50;86.10;;;;;;5028824;28;20055;-85
2021/12/28 09:35:31;;;;;;;51.00;8.40;;;10.50;85.90;;;;;;5033829;28;20073;-84
2021/12/28 09:37:58;;;;;;;52.90;7.03;;;10.50;85.80;;;;;;5034111;28;20057;-84
2021/12/28 09:40:29;;;;;;;52.63;8.40;;;10.50;85.50;;;;;;5034138;28;20527;-84
2021/12/28 09:42:56;;;;;;;54.42;8.13;;;10.40;85.20;;;;;;5033580;28;20049;-84
2021/12/28 09:45:24;;;;;;;68.85;9.38;;;10.40;84.90;;;;;;5034003;28;20521;-85
2021/12/28 09:47:52;;;;;;;53.03;7.97;;;10.40;84.60;;;;;;5032830;28;20049;-84
2021/12/28 09:50:21;;;;;;;71.35;9.05;;;10.40;84.30;;;;;;5033683;28;20517;-84
2021/12/28 09:52:50;;;;;;;59.00;8.85;;;10.40;84.10;;;;;;5034027;28;20049;-84
2021/12/28 09:55:20;;;;;;;51.00;8.60;;;10.40;83.80;;;;;;5033959;28;20136;-84
2021/12/28 09:57:50;;;;;;;56.25;8.32;;;10.40;83.50;;;;;;5031952;28;20076;-84
2021/12/28 10:00:20;;;;;;;59.03;9.13;;;10.40;83.30;;;;;;5033372;28;20064;-84
2021/12/28 10:03:07;;;;;;;67.03;9.90;;;10.40;83.10;;;;;;5027938;28;20046;-85
2021/12/28 10:05:35;;;;;;;42.78;8.38;;;10.40;83.00;;;;;;5034640;28;20050;-84
2021/12/28 10:08:05;;;;;;;60.63;8.88;;;10.40;82.90;;;;;;5033517;28;20045;-84
2021/12/28 10:10:37;;;;;;;72.45;9.88;;;10.30;82.80;;;;;;5033504;28;20132;-85
2021/12/28 10:13:08;;;;;;;55.50;9.02;;;10.40;82.80;;;;;;5033369;28;20052;-85
2021/12/28 10:15:38;;;;;;;67.60;10.20;;;10.30;82.70;;;;;;5017231;28;20553;-85
2021/12/28 10:18:08;;;;;;;57.92;9.70;;;10.30;82.70;;;;;;5060417;28;20049;-85
2021/12/28 10:20:49;;;;;;;74.88;9.65;;;10.30;82.70;;;;;;5032793;28;20048;-85
2021/12/28 10:23:20;;;;;;;68.68;9.80;;;10.30;82.70;;;;;;5033206;28;20522;-84
2021/12/28 10:25:51;;;;;;;61.58;9.30;;;10.20;82.60;;;;;;5032720;28;20051;-85
2021/12/28 10:28:20;;;;;;;60.67;18.23;;;10.20;82.60;;;;;;5032831;28;20517;-84
2021/12/28 10:30:54;;;;;;;60.38;10.05;;;10.30;82.60;;;;;;5064765;28;20046;-84
2021/12/28 10:33:24;;;;;;;52.85;9.25;;;10.20;82.50;;;;;;5033068;28;20057;-85
2021/12/28 10:36:02;;;;;;;66.97;8.70;;;10.20;82.60;;;;;;5030379;28;20046;-85
2021/12/28 10:38:33;;;;;;;61.90;9.02;;;10.20;82.50;;;;;;5033224;28;20045;-85
2021/12/28 10:41:09;;;;;;;61.42;9.23;;;10.30;82.50;;;;;;5033042;28;20072;-85
2021/12/28 10:43:39;;;;;;;56.22;9.77;;;10.30;82.50;;;;;;5032866;28;20126;-83
2021/12/28 10:46:10;;;;;;;55.85;8.73;;;10.30;82.40;;;;;;5032785;28;20063;-84
2021/12/28 10:48:46;;;;;;;60.05;8.85;;;10.30;82.40;;;;;;5017483;28;20055;-86
2021/12/28 10:51:18;;;;;;;58.78;9.15;;;10.40;82.40;;;;;;5031961;28;20050;-86
2021/12/28 10:53:55;;;;;;;47.72;9.20;;;10.40;82.30;;;;;;5034017;28;20516;-88
2021/12/28 10:56:23;;;;;;;57.33;8.27;;;10.40;82.10;;;;;;5032892;28;20042;-86
2021/12/28 10:58:51;;;;;;;63.25;10.85;;;10.50;81.90;;;;;;5031138;28;20053;-86
2021/12/28 11:01:27;;;;;;;61.42;12.52;;;10.60;81.70;;;;;;5032458;28;20041;-87
2021/12/28 11:04:00;;;;;;;45.75;9.20;;;10.70;81.40;;;;;;5032654;28;20041;-87
2021/12/28 11:06:34;;;;;;;57.35;10.02;;;10.80;81.20;;;;;;5012870;28;20145;-86
2021/12/28 11:09:10;;;;;;;47.20;7.63;;;10.90;81.00;;;;;;5012095;28;20053;-87
2021/12/28 11:11:39;;;;;;;37.10;9.25;;;10.90;80.80;;;;;;5012305;28;20041;-87
2021/12/28 11:14:09;;;;;;;65.78;10.73;;;11.00;80.70;;;;;;5012517;28;20052;-87
2021/12/28 11:16:37;;;;;;;52.70;8.43;;;11.00;80.50;;;;;;5012879;28;20525;-86
2021/12/28 11:19:08;;;;;;;47.40;7.18;;;11.00;80.50;;;;;;5011437;28;20502;-84
2021/12/28 11:21:54;;;;;;;37.63;6.97;;;11.00;80.40;;;;;;4997731;28;20099;-84
2021/12/28 11:24:21;;;;;;;36.42;6.15;;;10.90;80.20;;;;;;5011677;28;20053;-83
2021/12/28 11:26:50;;;;;;;40.45;6.63;;;10.90;79.90;;;;;;5009706;28;20125;-84
2021/12/28 11:29:23;;;;;;;33.30;5.70;;;10.90;79.60;;;;;;5012296;28;20056;-83
2021/12/28 11:31:57;;;;;;;34.10;4.83;;;10.90;79.50;;;;;;5012766;28;20046;-84
2021/12/28 11:34:24;;;;;;;;;;;10.90;79.40;;;;;;5013047;28;20054;-84
2021/12/28 11:37:00;;;;;;;33.67;5.40;;;10.80;79.40;;;;;;5012889;28;19921;-84
2021/12/28 11:39:58;;;;;;;31.52;5.47;;;10.80;79.40;;;;;;5016534;28;20052;-85
2021/12/28 11:42:28;;;;;;;43.13;7.28;;;10.70;79.50;;;;;;5014539;28;20068;-85
2021/12/28 11:44:55;;;;;;;60.25;10.98;;;10.60;79.60;;;;;;5015647;28;20084;-84
2021/12/28 11:47:23;;;;;;;63.47;9.63;;;10.60;79.80;;;;;;5016439;28;20046;-85
2021/12/28 11:49:54;;;;;;;50.13;9.07;;;10.60;79.90;;;;;;5015973;28;20049;-84
2021/12/28 11:52:21;;;;;;;50.10;8.27;;;10.60;80.00;;;;;;5016443;28;20038;-83
2021/12/28 11:54:50;;;;;;;49.05;9.75;;;10.50;80.10;;;;;;5015170;28;20132;-83
2021/12/28 11:57:25;;;;;;;84.07;37.33;;;10.50;80.10;;;;;;5014075;28;20084;-85
2021/12/28 11:59:55;;;;;;;54.58;19.50;;;10.50;80.00;;;;;;5013788;28;20050;-85
2021/12/28 12:02:45;;;;;;;106.03;54.10;;;10.50;79.90;;;;;;5016120;28;20056;-85
2021/12/28 12:05:19;;;;;;;67.90;26.23;;;10.60;79.90;;;;;;5026380;28;20056;-85
2021/12/28 12:08:03;;;;;;;59.83;17.42;;;10.50;79.80;;;;;;5067711;28;20042;-85
2021/12/28 12:10:31;;;;;;;;;;;10.50;79.70;;;;;;5036408;28;20059;-85
2021/12/28 12:13:03;;;;;;;35.38;7.70;;;10.50;79.60;;;;;;5035288;28;19929;-84
2021/12/28 12:15:42;;;;;;;45.42;7.35;;;10.50;79.50;;;;;;5035914;28;20136;-85
2021/12/28 12:18:12;;;;;;;41.97;7.00;;;10.50;79.40;;;;;;5046358;28;20064;-85
2021/12/28 12:20:51;;;;;;;39.05;7.15;;;10.50;79.20;;;;;;5035902;28;20433;-86
2021/12/28 12:23:21;;;;;;;34.03;6.55;;;10.50;79.00;;;;;;5036198;28;20063;-85
2021/12/28 12:26:06;;;;;;;46.13;6.90;;;10.50;78.80;;;;;;5034882;28;20044;-86
2021/12/28 12:28:33;;;;;;;42.88;6.55;;;10.60;78.60;;;;;;5035436;28;20530;-85
2021/12/28 12:31:01;;;;;;;33.47;6.13;;;10.50;78.50;;;;;;5035566;28;20044;-84
2021/12/28 12:33:43;;;;;;;30.02;6.05;;;10.60;78.30;;;;;;5035165;28;20476;-85
2021/12/28 12:36:30;;;;;;;37.00;6.22;;;10.60;78.30;;;;;;5031095;28;20057;-85
2021/12/28 12:38:57;;;;;;;36.92;5.68;;;10.60;78.30;;;;;;5033727;28;20395;-83
2021/12/28 12:41:47;;;;;;;36.53;6.32;;;10.60;78.40;;;;;;5034693;28;20051;-83
2021/12/28 12:44:21;;;;;;;38.90;6.32;;;10.60;78.60;;;;;;5034046;28;20073;-83
2021/12/28 12:46:52;;;;;;;34.42;6.40;;;10.60;78.70;;;;;;5035147;28;20045;-83
2021/12/28 12:49:31;;;;;;;37.13;6.78;;;10.50;78.90;;;;;;5034256;28;20524;-85
2021/12/28 12:52:10;;;;;;;31.85;6.15;;;10.50;79.00;;;;;;5035192;28;20053;-84
2021/12/28 12:54:53;;;;;;;36.95;6.22;;;10.50;79.20;;;;;;5019179;28;20041;-84